Time;durP1;ratioP1;P1;durP2;ratioP2;P2;SDS_P1;SDS_P2;PMS_P1;PMS_P2;Temp;Humidity;BMP_temperature;BMP_pressure;BME280_temperature;BME280_humidity;BME280_pressure;Samples;Min_cycle;Max_cycle;Signal;HPM_P1;HPM_P2
2022/02/14 00:02:16;;;;;;;8.07;5.40;;;8.80;99.90;;;;;;5066610;28;20278;-71
2022/02/14 00:04:43;;;;;;;9.35;4.75;;;8.90;99.90;;;;;;5066438;28;20471;-71
2022/02/14 00:07:10;;;;;;;15.75;4.82;;;8.80;99.90;;;;;;5066465;28;20211;-72
2022/02/14 00:09:37;;;;;;;7.80;4.85;;;8.80;99.90;;;;;;5066240;28;20184;-71
2022/02/14 00:12:04;;;;;;;10.43;4.80;;;8.80;99.90;;;;;;5066542;28;20685;-72
2022/02/14 00:14:33;;;;;;;11.55;5.60;;;8.80;99.90;;;;;;5066488;28;20396;-69
2022/02/14 00:17:00;;;;;;;7.45;4.68;;;8.80;99.90;;;;;;5066521;28;20255;-71
2022/02/14 00:19:27;;;;;;;6.53;4.72;;;8.90;99.90;;;;;;5066475;28;20184;-69
2022/02/14 00:21:53;;;;;;;9.77;5.55;;;8.90;99.90;;;;;;5062492;28;20226;-71
2022/02/14 00:24:20;;;;;;;14.88;4.95;;;8.90;99.90;;;;;;5066305;28;20420;-70
2022/02/14 00:26:53;;;;;;;8.95;5.28;;;8.90;99.90;;;;;;5069851;28;20277;-71
2022/02/14 00:29:21;;;;;;;10.70;4.38;;;9.00;99.90;;;;;;5070614;28;20198;-71
2022/02/14 00:31:50;;;;;;;10.88;4.63;;;8.90;99.90;;;;;;5069662;28;20216;-72
2022/02/14 00:34:17;;;;;;;5.45;3.97;;;9.00;99.90;;;;;;5070305;28;20212;-70
2022/02/14 00:36:44;;;;;;;5.95;3.88;;;9.10;99.90;;;;;;5070592;28;20187;-71
2022/02/14 00:39:11;;;;;;;6.88;4.35;;;9.00;99.90;;;;;;5070624;28;20192;-72
2022/02/14 00:41:38;;;;;;;11.00;4.75;;;9.00;99.90;;;;;;5069660;28;20303;-71
2022/02/14 00:44:05;;;;;;;7.63;4.80;;;9.00;99.90;;;;;;5070576;28;20188;-71
2022/02/14 00:46:32;;;;;;;10.85;4.18;;;9.10;99.90;;;;;;5069838;28;20204;-72
2022/02/14 00:49:01;;;;;;;13.82;5.97;;;9.10;99.90;;;;;;5070291;28;20251;-71
2022/02/14 00:51:28;;;;;;;7.03;4.57;;;9.10;99.90;;;;;;5069184;28;20214;-72
2022/02/14 00:53:54;;;;;;;7.03;4.70;;;9.10;99.90;;;;;;5070427;28;20180;-71
2022/02/14 00:56:21;;;;;;;5.35;4.00;;;9.10;99.90;;;;;;5070608;28;20215;-71
2022/02/14 00:58:48;;;;;;;10.60;4.75;;;9.10;99.90;;;;;;5070104;28;20203;-71
2022/02/14 01:01:15;;;;;;;5.63;4.25;;;9.10;99.90;;;;;;5069354;28;20196;-71
2022/02/14 01:03:42;;;;;;;7.55;3.75;;;9.10;99.90;;;;;;5070188;28;20279;-69
2022/02/14 01:06:11;;;;;;;7.25;3.88;;;9.10;99.90;;;;;;5069455;28;20188;-72
2022/02/14 01:08:37;;;;;;;5.93;4.03;;;9.10;99.90;;;;;;5070491;28;20215;-71
2022/02/14 01:11:05;;;;;;;10.02;4.10;;;9.10;99.90;;;;;;5069187;28;20423;-72
2022/02/14 01:13:32;;;;;;;7.25;4.25;;;9.20;99.90;;;;;;5069927;28;20203;-70
2022/02/14 01:15:59;;;;;;;5.53;3.38;;;9.20;99.90;;;;;;5069429;28;20222;-70
2022/02/14 01:18:26;;;;;;;7.43;4.85;;;9.20;99.90;;;;;;5069794;28;20254;-72
2022/02/14 01:20:53;;;;;;;13.05;4.07;;;9.20;99.90;;;;;;5065870;28;20188;-70
2022/02/14 01:23:21;;;;;;;8.60;4.45;;;9.10;99.90;;;;;;5069367;28;20203;-70
2022/02/14 01:25:48;;;;;;;8.48;4.93;;;9.20;99.90;;;;;;5069332;28;20267;-72
2022/02/14 01:28:15;;;;;;;7.97;3.97;;;9.20;99.90;;;;;;5069340;28;20691;-70
2022/02/14 01:30:42;;;;;;;7.13;3.97;;;9.10;99.90;;;;;;5068743;28;20254;-70
2022/02/14 01:33:09;;;;;;;4.88;3.25;;;9.20;99.90;;;;;;5069500;28;20222;-71
2022/02/14 01:35:36;;;;;;;4.55;3.65;;;9.20;99.90;;;;;;5069377;28;20211;-71
2022/02/14 01:38:03;;;;;;;12.13;4.75;;;9.20;99.90;;;;;;5068561;28;20203;-71
2022/02/14 01:40:32;;;;;;;6.60;4.15;;;9.20;99.90;;;;;;5068638;28;20230;-72
2022/02/14 01:42:59;;;;;;;7.22;3.80;;;9.30;99.90;;;;;;5068825;28;20249;-70
2022/02/14 01:45:26;;;;;;;5.45;3.92;;;9.30;99.90;;;;;;5069163;28;20238;-70
2022/02/14 01:47:53;;;;;;;10.52;4.85;;;9.40;99.90;;;;;;5068740;28;20207;-72
2022/02/14 01:50:20;;;;;;;6.35;4.10;;;9.30;99.90;;;;;;5068550;28;20367;-71
2022/02/14 01:52:47;;;;;;;6.28;5.05;;;9.40;99.90;;;;;;5068583;28;20219;-70
2022/02/14 01:55:16;;;;;;;8.25;3.63;;;9.40;99.90;;;;;;5068996;28;20176;-71
2022/02/14 01:57:45;;;;;;;5.13;3.28;;;9.40;99.90;;;;;;5069023;28;20180;-70
2022/02/14 02:00:14;;;;;;;9.30;3.60;;;9.40;99.90;;;;;;5068565;28;20188;-70
2022/02/14 02:02:42;;;;;;;8.95;3.78;;;9.40;99.90;;;;;;5068476;28;20208;-72
2022/02/14 02:05:09;;;;;;;6.70;3.63;;;9.40;99.90;;;;;;5069080;28;20179;-71
2022/02/14 02:07:37;;;;;;;5.75;3.22;;;9.50;99.90;;;;;;5068518;28;20219;-71
2022/02/14 02:10:07;;;;;;;5.72;3.67;;;9.40;99.90;;;;;;5067983;28;20226;-72
2022/02/14 02:12:33;;;;;;;8.07;3.83;;;9.40;99.90;;;;;;5068795;28;20399;-69
2022/02/14 02:15:05;;;;;;;8.03;3.80;;;9.40;99.90;;;;;;5065525;28;20175;-70
2022/02/14 02:17:34;;;;;;;6.88;4.22;;;9.50;99.90;;;;;;5068403;28;20482;-71
2022/02/14 02:20:02;;;;;;;8.35;3.95;;;9.50;99.90;;;;;;5068054;28;20191;-72
2022/02/14 02:22:29;;;;;;;5.78;3.58;;;9.50;99.90;;;;;;5067765;28;20215;-71
2022/02/14 02:24:58;;;;;;;7.13;3.83;;;9.50;99.90;;;;;;5068678;28;20356;-70
2022/02/14 02:27:27;;;;;;;4.25;3.53;;;9.60;99.90;;;;;;5068469;28;20388;-71
2022/02/14 02:29:55;;;;;;;7.10;3.20;;;9.60;99.90;;;;;;5067487;28;20179;-70
2022/02/14 02:32:22;;;;;;;12.07;3.92;;;9.60;99.90;;;;;;5068207;28;20374;-71
2022/02/14 02:34:49;;;;;;;6.85;3.55;;;9.60;99.90;;;;;;5068145;28;20187;-72
2022/02/14 02:37:17;;;;;;;7.25;3.42;;;9.60;99.90;;;;;;5068080;28;20188;-72
2022/02/14 02:39:45;;;;;;;4.68;3.05;;;9.60;99.90;;;;;;5067726;28;20263;-71
2022/02/14 02:42:15;;;;;;;8.18;3.20;;;9.60;99.90;;;;;;5068020;28;20231;-69
2022/02/14 02:44:43;;;;;;;11.05;3.80;;;9.60;99.90;;;;;;5062578;28;20226;-70
2022/02/14 02:47:12;;;;;;;8.52;3.72;;;9.70;99.90;;;;;;5063493;28;20192;-71
2022/02/14 02:49:40;;;;;;;6.05;3.15;;;9.70;99.90;;;;;;5067194;28;20427;-71
2022/02/14 02:52:09;;;;;;;6.60;3.95;;;9.70;99.90;;;;;;5067836;28;20249;-71
2022/02/14 02:54:37;;;;;;;4.20;3.40;;;9.60;99.90;;;;;;5067699;28;20306;-70
2022/02/14 02:57:05;;;;;;;4.18;2.97;;;9.70;99.90;;;;;;5067708;28;20400;-72
2022/02/14 02:59:34;;;;;;;9.82;3.35;;;9.70;99.90;;;;;;5067071;28;20365;-71
2022/02/14 03:02:01;;;;;;;9.48;3.90;;;9.70;99.90;;;;;;5067332;28;20290;-71
2022/02/14 03:04:28;;;;;;;5.63;3.50;;;9.70;99.90;;;;;;5067473;28;20211;-72
2022/02/14 03:06:55;;;;;;;11.93;3.92;;;9.70;99.90;;;;;;5067729;28;20238;-70
2022/02/14 03:09:23;;;;;;;10.85;3.97;;;9.70;99.90;;;;;;5067397;28;20238;-71
2022/02/14 03:11:50;;;;;;;7.65;3.80;;;9.60;99.90;;;;;;5066811;28;20270;-70
2022/02/14 03:14:17;;;;;;;8.57;2.88;;;9.60;99.90;;;;;;5067675;28;20188;-71
2022/02/14 03:16:46;;;;;;;5.78;2.53;;;9.60;99.90;;;;;;5067298;28;20255;-71
2022/02/14 03:19:13;;;;;;;6.75;4.15;;;9.60;99.90;;;;;;5067518;28;20207;-70
2022/02/14 03:21:40;;;;;;;6.50;3.80;;;9.60;99.90;;;;;;5066495;28;20239;-70
2022/02/14 03:24:08;;;;;;;6.72;3.60;;;9.70;99.90;;;;;;5067670;28;20200;-69
2022/02/14 03:26:35;;;;;;;10.77;4.20;;;9.70;99.90;;;;;;5067247;28;20258;-71
2022/02/14 03:29:03;;;;;;;7.43;3.70;;;9.70;99.90;;;;;;5066991;28;20203;-71
2022/02/14 03:31:30;;;;;;;5.82;3.30;;;9.60;99.90;;;;;;5066215;28;20192;-70
2022/02/14 03:33:58;;;;;;;6.60;5.00;;;9.50;99.90;;;;;;5067392;28;20191;-71
2022/02/14 03:36:25;;;;;;;6.95;3.70;;;9.60;99.90;;;;;;5067214;28;20235;-72
2022/02/14 03:38:52;;;;;;;5.78;3.63;;;9.60;99.90;;;;;;5066949;28;20415;-71
2022/02/14 03:41:20;;;;;;;9.40;4.22;;;9.60;99.90;;;;;;5066368;28;20255;-70
2022/02/14 03:43:47;;;;;;;6.50;3.42;;;9.60;99.90;;;;;;5067169;28;20256;-71
2022/02/14 03:46:15;;;;;;;4.75;3.10;;;9.70;99.90;;;;;;5066781;28;20218;-70
2022/02/14 03:48:42;;;;;;;6.43;4.32;;;9.70;99.90;;;;;;5066969;28;20199;-69
2022/02/14 03:51:11;;;;;;;5.38;3.60;;;9.70;99.90;;;;;;5066359;28;20376;-70
2022/02/14 03:53:37;;;;;;;4.20;3.45;;;9.70;99.90;;;;;;5066505;28;20274;-72
2022/02/14 03:56:05;;;;;;;10.00;4.30;;;9.60;99.90;;;;;;5067118;28;20179;-71
2022/02/14 03:58:33;;;;;;;6.15;3.65;;;9.60;99.90;;;;;;5064541;28;20407;-71
2022/02/14 04:01:00;;;;;;;6.70;3.70;;;9.70;99.90;;;;;;5065620;28;20219;-70
2022/02/14 04:03:27;;;;;;;9.20;5.15;;;9.60;99.90;;;;;;5066868;28;20230;-71
2022/02/14 04:05:54;;;;;;;10.85;3.80;;;9.60;99.90;;;;;;5059484;28;20191;-70
2022/02/14 04:08:22;;;;;;;7.82;4.20;;;9.60;99.90;;;;;;5066847;28;20207;-71
2022/02/14 04:10:50;;;;;;;6.00;3.75;;;9.60;99.90;;;;;;5065392;28;20423;-71
2022/02/14 04:13:17;;;;;;;5.88;2.92;;;9.60;99.90;;;;;;5066744;28;20274;-72
2022/02/14 04:15:44;;;;;;;8.90;4.35;;;9.60;99.90;;;;;;5066679;28;20184;-70
2022/02/14 04:18:11;;;;;;;5.50;3.10;;;9.60;99.90;;;;;;5066663;28;20207;-71
2022/02/14 04:20:37;;;;;;;8.07;4.30;;;9.60;99.90;;;;;;5066144;28;20279;-70
2022/02/14 04:23:05;;;;;;;7.57;3.72;;;9.60;99.90;;;;;;5066105;28;20203;-71
2022/02/14 04:25:33;;;;;;;6.10;4.20;;;9.50;99.90;;;;;;5066742;28;20233;-69
2022/02/14 04:28:00;;;;;;;5.47;3.17;;;9.60;99.90;;;;;;5066685;28;20220;-69
2022/02/14 04:30:29;;;;;;;6.45;3.33;;;9.50;99.90;;;;;;5065744;28;20267;-72
2022/02/14 04:32:59;;;;;;;7.70;3.85;;;9.60;99.90;;;;;;5066144;28;20243;-70
2022/02/14 04:35:27;;;;;;;6.38;2.90;;;9.50;99.90;;;;;;5066682;28;20227;-70
2022/02/14 04:37:58;;;;;;;8.82;3.60;;;9.50;99.90;;;;;;5065787;28;20210;-70
2022/02/14 04:40:26;;;;;;;11.82;3.50;;;9.60;99.90;;;;;;5065887;28;20188;-70
2022/02/14 04:42:55;;;;;;;9.38;4.10;;;9.50;99.90;;;;;;5066155;28;20204;-73
2022/02/14 04:45:22;;;;;;;4.63;3.65;;;9.50;99.90;;;;;;5066184;28;20222;-71
2022/02/14 04:47:49;;;;;;;7.65;3.58;;;9.60;99.90;;;;;;5066246;28;20250;-70
2022/02/14 04:50:16;;;;;;;6.28;3.35;;;9.50;99.90;;;;;;5065955;28;20205;-70
2022/02/14 04:52:43;;;;;;;7.07;3.30;;;9.30;99.90;;;;;;5067325;28;20231;-70
2022/02/14 04:55:12;;;;;;;8.88;4.20;;;9.30;99.90;;;;;;5067618;28;20231;-72
2022/02/14 04:57:39;;;;;;;9.38;4.40;;;9.10;99.90;;;;;;5064086;28;20216;-70
2022/02/14 05:00:11;;;;;;;6.25;3.58;;;9.00;99.90;;;;;;5065759;28;20252;-70
2022/02/14 05:02:38;;;;;;;6.15;3.30;;;8.90;99.90;;;;;;5066107;28;20235;-71
2022/02/14 05:05:06;;;;;;;6.10;3.72;;;8.80;99.90;;;;;;5066288;28;20215;-70
2022/02/14 05:07:34;;;;;;;14.18;4.63;;;8.80;99.90;;;;;;5066263;28;20184;-70
2022/02/14 05:10:00;;;;;;;6.78;3.90;;;8.70;99.90;;;;;;5065579;28;20203;-70
2022/02/14 05:12:28;;;;;;;4.55;3.72;;;8.60;99.90;;;;;;5068432;28;20211;-70
2022/02/14 05:14:54;;;;;;;5.20;4.15;;;8.60;99.90;;;;;;5070054;28;20419;-69
2022/02/14 05:17:23;;;;;;;7.93;4.60;;;8.60;99.90;;;;;;5069444;28;20215;-69
2022/02/14 05:19:50;;;;;;;7.75;4.10;;;8.50;99.90;;;;;;5069208;28;20195;-70
2022/02/14 05:22:17;;;;;;;7.28;4.15;;;8.50;99.90;;;;;;5069235;28;20203;-70
2022/02/14 05:24:43;;;;;;;17.05;4.20;;;8.60;99.90;;;;;;5069833;28;20187;-71
2022/02/14 05:27:10;;;;;;;7.90;4.70;;;8.60;99.90;;;;;;5069427;28;20229;-71
2022/02/14 05:29:37;;;;;;;3.45;3.10;;;8.60;99.90;;;;;;5068531;28;20215;-71
2022/02/14 05:32:05;;;;;;;5.47;4.20;;;8.50;99.90;;;;;;5069328;28;20380;-71
2022/02/14 05:34:33;;;;;;;10.23;4.10;;;8.40;99.90;;;;;;5069724;28;20221;-71
2022/02/14 05:37:00;;;;;;;7.18;4.13;;;8.40;99.90;;;;;;5069018;28;20366;-72
2022/02/14 05:39:27;;;;;;;6.55;4.00;;;8.30;99.90;;;;;;5068549;28;20179;-72
2022/02/14 05:41:54;;;;;;;10.05;4.30;;;8.30;99.90;;;;;;5061235;28;20211;-71
2022/02/14 05:44:21;;;;;;;5.65;4.20;;;8.30;99.90;;;;;;5069140;28;20207;-71
2022/02/14 05:46:48;;;;;;;4.63;4.13;;;8.30;99.90;;;;;;5068077;28;20279;-71
2022/02/14 05:49:15;;;;;;;11.73;5.57;;;8.40;99.90;;;;;;5069130;28;20406;-70
2022/02/14 05:51:44;;;;;;;6.68;4.80;;;8.40;99.90;;;;;;5069093;28;20208;-69
2022/02/14 05:54:11;;;;;;;8.57;3.80;;;8.40;99.90;;;;;;5069058;28;20215;-71
2022/02/14 05:56:37;;;;;;;5.43;3.85;;;8.40;99.90;;;;;;5068863;28;20250;-71
2022/02/14 05:59:04;;;;;;;9.63;4.40;;;8.40;99.90;;;;;;5063689;28;20208;-70
2022/02/14 06:01:32;;;;;;;7.72;4.10;;;8.40;99.90;;;;;;5057010;28;20183;-71
2022/02/14 06:03:59;;;;;;;10.23;3.80;;;8.50;99.90;;;;;;5068352;28;20191;-71
2022/02/14 06:06:25;;;;;;;5.35;4.10;;;8.40;99.90;;;;;;5068434;28;20191;-72
2022/02/14 06:08:54;;;;;;;7.88;4.50;;;8.40;99.90;;;;;;5068163;28;20270;-70
2022/02/14 06:11:21;;;;;;;9.07;4.90;;;8.50;99.90;;;;;;5067637;28;20567;-72
2022/02/14 06:13:48;;;;;;;6.30;4.30;;;8.40;99.90;;;;;;5068402;28;20246;-72
2022/02/14 06:16:15;;;;;;;6.43;4.05;;;8.40;99.90;;;;;;5068272;28;20255;-71
2022/02/14 06:18:42;;;;;;;6.10;4.28;;;8.40;99.90;;;;;;5066753;28;20180;-71
2022/02/14 06:21:09;;;;;;;9.20;4.57;;;8.40;99.90;;;;;;5056790;28;20415;-73
2022/02/14 06:23:36;;;;;;;8.35;3.90;;;8.40;99.90;;;;;;5067309;28;20221;-73
2022/02/14 06:26:05;;;;;;;8.52;4.18;;;8.50;99.90;;;;;;5068498;28;20183;-74
2022/02/14 06:28:38;;;;;;;5.07;4.30;;;8.40;99.90;;;;;;5069727;28;20225;-74
2022/02/14 06:31:05;;;;;;;5.80;3.83;;;8.50;99.90;;;;;;5067435;28;20188;-72
2022/02/14 06:33:32;;;;;;;7.65;4.85;;;8.60;99.90;;;;;;5068177;28;20217;-73
2022/02/14 06:35:59;;;;;;;5.50;3.58;;;8.60;99.90;;;;;;5068160;28;20188;-73
2022/02/14 06:38:27;;;;;;;9.18;4.72;;;8.60;99.90;;;;;;5067801;28;20191;-72
2022/02/14 06:40:54;;;;;;;9.60;4.32;;;8.60;99.90;;;;;;5066698;28;20198;-73
2022/02/14 06:43:22;;;;;;;6.07;4.55;;;8.80;99.90;;;;;;5067857;28;20204;-72
2022/02/14 06:45:49;;;;;;;10.50;4.28;;;8.80;99.90;;;;;;5067321;28;20245;-73
2022/02/14 06:48:16;;;;;;;8.43;4.30;;;8.80;99.90;;;;;;5068427;28;20234;-72
2022/02/14 06:50:43;;;;;;;8.80;4.00;;;8.80;99.90;;;;;;5067303;28;20191;-71
2022/02/14 06:53:10;;;;;;;6.78;3.97;;;8.80;99.90;;;;;;5067901;28;20195;-75
2022/02/14 06:55:37;;;;;;;10.80;4.28;;;8.70;99.90;;;;;;5067767;28;20214;-73
2022/02/14 06:58:04;;;;;;;6.20;4.10;;;8.70;99.90;;;;;;5067346;28;20219;-74
2022/02/14 07:00:32;;;;;;;8.45;4.45;;;8.80;99.90;;;;;;5067363;28;20298;-71
2022/02/14 07:02:59;;;;;;;6.70;3.90;;;8.80;99.90;;;;;;5067763;28;20207;-72
2022/02/14 07:05:26;;;;;;;7.35;4.25;;;8.90;99.90;;;;;;5060644;28;20222;-73
2022/02/14 07:07:53;;;;;;;4.88;3.45;;;8.90;99.90;;;;;;5067047;28;20312;-74
2022/02/14 07:10:21;;;;;;;7.60;4.20;;;9.00;99.90;;;;;;5066687;28;20239;-74
2022/02/14 07:12:48;;;;;;;11.20;4.25;;;9.00;99.90;;;;;;5067164;28;20238;-72
2022/02/14 07:15:16;;;;;;;6.28;3.85;;;9.00;99.90;;;;;;5067203;28;20396;-71
2022/02/14 07:17:45;;;;;;;6.18;3.67;;;9.10;99.90;;;;;;5067189;28;20192;-71
2022/02/14 07:20:13;;;;;;;8.40;3.90;;;9.20;99.90;;;;;;5066662;28;20392;-71
2022/02/14 07:22:40;;;;;;;6.00;4.20;;;9.20;99.90;;;;;;5066286;28;20207;-72
2022/02/14 07:25:07;;;;;;;6.03;3.10;;;9.30;99.90;;;;;;5067131;28;20225;-74
2022/02/14 07:27:35;;;;;;;7.50;3.00;;;9.30;99.90;;;;;;5067261;28;20191;-71
2022/02/14 07:30:03;;;;;;;9.45;3.63;;;9.40;99.90;;;;;;5066158;28;20278;-75
2022/02/14 07:32:30;;;;;;;7.53;3.40;;;9.50;99.90;;;;;;5066722;28;20466;-73
2022/02/14 07:34:58;;;;;;;7.72;3.75;;;9.50;99.90;;;;;;5065512;28;20187;-70
2022/02/14 07:37:26;;;;;;;5.85;3.75;;;9.60;99.90;;;;;;5067597;28;20191;-72
2022/02/14 07:39:53;;;;;;;5.60;2.85;;;9.60;99.90;;;;;;5058497;28;20207;-74
2022/02/14 07:42:21;;;;;;;7.07;2.88;;;9.80;99.90;;;;;;5067003;28;20271;-73
2022/02/14 07:44:48;;;;;;;5.22;2.88;;;9.80;99.90;;;;;;5066821;28;21126;-72
2022/02/14 07:47:15;;;;;;;6.10;2.55;;;9.90;99.90;;;;;;5062526;28;20289;-71
2022/02/14 07:49:42;;;;;;;5.95;3.05;;;9.90;99.90;;;;;;5051513;28;20209;-72
2022/02/14 07:52:10;;;;;;;5.53;3.70;;;10.00;99.90;;;;;;5049367;28;20331;-73
2022/02/14 07:54:37;;;;;;;13.68;4.47;;;10.10;99.90;;;;;;5064294;28;20200;-71
2022/02/14 07:57:04;;;;;;;6.43;3.45;;;10.30;99.90;;;;;;5066316;28;20345;-73
2022/02/14 07:59:34;;;;;;;7.53;4.35;;;10.50;99.90;;;;;;5065592;28;20411;-71
2022/02/14 08:02:01;;;;;;;6.32;3.75;;;10.90;99.90;;;;;;5065887;28;20208;-73
2022/02/14 08:04:28;;;;;;;5.50;3.55;;;11.20;99.70;;;;;;5066535;28;20217;-73
2022/02/14 08:06:55;;;;;;;7.70;3.00;;;11.10;99.20;;;;;;5064198;28;20256;-75
2022/02/14 08:09:23;;;;;;;3.78;3.00;;;11.00;99.30;;;;;;5062811;28;20196;-73
2022/02/14 08:11:50;;;;;;;5.38;2.85;;;11.00;99.60;;;;;;5067572;28;20261;-73
2022/02/14 08:14:18;;;;;;;10.30;3.05;;;10.90;99.90;;;;;;5067688;28;20295;-72
2022/02/14 08:16:44;;;;;;;10.55;3.70;;;10.90;99.90;;;;;;5066221;28;20194;-75
2022/02/14 08:19:11;;;;;;;3.78;2.55;;;10.90;99.90;;;;;;5065016;28;20183;-73
2022/02/14 08:21:38;;;;;;;5.38;3.15;;;10.80;99.90;;;;;;5065629;28;20184;-71
2022/02/14 08:24:05;;;;;;;4.40;2.95;;;10.90;99.90;;;;;;5066415;28;20313;-74
2022/02/14 08:26:34;;;;;;;5.50;2.95;;;11.30;99.90;;;;;;5065431;28;20328;-73
2022/02/14 08:29:02;;;;;;;6.22;3.35;;;12.00;98.50;;;;;;5066263;28;20211;-70
2022/02/14 08:31:29;;;;;;;3.75;3.15;;;12.90;96.60;;;;;;5065734;28;20195;-73
2022/02/14 08:33:57;;;;;;;6.80;2.83;;;13.20;95.30;;;;;;5066621;28;20205;-75
2022/02/14 08:36:24;;;;;;;7.30;4.18;;;13.30;94.70;;;;;;5063147;28;20184;-73
2022/02/14 08:38:52;;;;;;;3.33;2.58;;;13.50;94.90;;;;;;5067980;28;20180;-73
2022/02/14 08:41:19;;;;;;;7.88;3.15;;;13.60;94.30;;;;;;5066348;28;20460;-73
2022/02/14 08:43:48;;;;;;;6.72;2.95;;;13.70;94.20;;;;;;5059731;28;20189;-73
2022/02/14 08:46:15;;;;;;;4.22;2.78;;;14.10;94.00;;;;;;5068785;28;20196;-73
2022/02/14 08:48:42;;;;;;;5.50;2.90;;;14.50;93.00;;;;;;5073232;28;20211;-73
2022/02/14 08:51:10;;;;;;;5.90;3.00;;;15.00;92.60;;;;;;5072655;28;20209;-71
2022/02/14 08:53:37;;;;;;;8.70;2.60;;;15.60;91.80;;;;;;5071245;28;20466;-73
2022/02/14 08:56:06;;;;;;;4.60;3.07;;;16.10;91.00;;;;;;5069853;28;20676;-73
2022/02/14 08:58:33;;;;;;;5.63;2.67;;;16.90;89.50;;;;;;5069946;28;20634;-74
2022/02/14 09:01:03;;;;;;;6.17;2.90;;;17.40;87.70;;;;;;5069464;28;20473;-74
2022/02/14 09:03:30;;;;;;;4.53;2.30;;;17.30;86.80;;;;;;5069900;28;20438;-75
2022/02/14 09:05:58;;;;;;;3.80;3.03;;;17.50;86.00;;;;;;5069888;28;20461;-75
2022/02/14 09:08:25;;;;;;;4.33;2.47;;;17.80;84.50;;;;;;5069815;28;20453;-74
2022/02/14 09:10:52;;;;;;;8.37;2.60;;;17.90;83.50;;;;;;5069041;28;20454;-72
2022/02/14 09:13:19;;;;;;;17.63;4.97;;;17.80;85.50;;;;;;5069807;28;20473;-74
2022/02/14 09:15:46;;;;;;;6.63;3.03;;;18.40;83.80;;;;;;5069920;28;20530;-71
2022/02/14 09:18:16;;;;;;;7.03;2.37;;;18.60;82.60;;;;;;5069689;28;20498;-72
2022/02/14 09:20:43;;;;;;;5.67;3.40;;;18.90;81.30;;;;;;5068734;28;20431;-72
2022/02/14 09:23:11;;;;;;;4.83;3.13;;;18.50;82.00;;;;;;5068828;28;20734;-73
2022/02/14 09:25:39;;;;;;;4.67;2.67;;;19.00;81.10;;;;;;5069719;28;20449;-71
2022/02/14 09:28:06;;;;;;;5.37;2.50;;;19.20;81.40;;;;;;5072315;28;20460;-74
2022/02/14 09:30:33;;;;;;;7.07;2.83;;;19.10;79.80;;;;;;5069161;28;20449;-74
2022/02/14 09:33:00;;;;;;;7.20;3.00;;;18.80;80.60;;;;;;5069178;28;20458;-75
2022/02/14 09:35:29;;;;;;;6.50;2.70;;;18.70;80.30;;;;;;5069345;28;20657;-72
2022/02/14 09:37:57;;;;;;;5.80;2.70;;;18.80;80.60;;;;;;5068548;28;20444;-72
2022/02/14 09:40:25;;;;;;;4.87;2.57;;;19.30;81.30;;;;;;5068526;28;20446;-74
2022/02/14 09:42:54;;;;;;;5.87;3.30;;;19.40;79.70;;;;;;5069157;28;20441;-72
2022/02/14 09:45:22;;;;;;;5.03;2.60;;;18.40;79.60;;;;;;5069063;28;20555;-74
2022/02/14 09:47:52;;;;;;;4.43;2.87;;;18.10;82.90;;;;;;5069829;28;20537;-75
2022/02/14 09:50:20;;;;;;;4.10;2.60;;;17.30;84.30;;;;;;5068137;28;20461;-73
2022/02/14 09:52:48;;;;;;;4.70;2.47;;;16.80;86.10;;;;;;5068708;28;20518;-74
2022/02/14 09:55:15;;;;;;;6.30;2.38;;;16.30;88.30;;;;;;5068797;28;20457;-73
2022/02/14 09:57:42;;;;;;;6.45;2.78;;;15.40;90.00;;;;;;5067993;28;20221;-73
2022/02/14 10:00:10;;;;;;;8.50;3.47;;;15.50;90.90;;;;;;5067797;28;20228;-75
2022/02/14 10:02:37;;;;;;;4.38;2.50;;;15.30;91.10;;;;;;5070008;28;20446;-71
2022/02/14 10:05:07;;;;;;;7.00;3.72;;;14.90;91.70;;;;;;5070352;28;20308;-72
2022/02/14 10:07:42;;;;;;;4.30;2.10;;;14.70;92.30;;;;;;5069119;28;20184;-76
2022/02/14 10:10:15;;;;;;;13.77;2.70;;;14.40;92.90;;;;;;5067907;28;20258;-75
2022/02/14 10:12:44;;;;;;;5.32;2.78;;;13.50;94.70;;;;;;5068463;28;20207;-74
2022/02/14 10:15:11;;;;;;;3.67;2.25;;;13.60;95.40;;;;;;5068348;28;20390;-74
2022/02/14 10:17:39;;;;;;;6.95;2.65;;;13.80;95.40;;;;;;5068252;28;20281;-73
2022/02/14 10:20:07;;;;;;;3.13;2.60;;;13.90;95.50;;;;;;5067122;28;20259;-73
2022/02/14 10:22:50;;;;;;;9.65;2.65;;;13.80;95.50;;;;;;5067692;28;20216;-74
2022/02/14 10:25:31;;;;;;;3.78;2.38;;;13.70;95.90;;;;;;5068544;28;20194;-76
2022/02/14 10:28:16;;;;;;;3.67;2.35;;;13.50;96.60;;;;;;5060870;28;20248;-72
2022/02/14 10:31:01;;;;;;;5.15;2.78;;;13.30;97.10;;;;;;5068096;28;20237;-74
2022/02/14 10:33:48;;;;;;;6.47;2.80;;;13.30;97.40;;;;;;5068466;28;20222;-73
2022/02/14 10:36:34;;;;;;;5.15;2.30;;;13.30;98.00;;;;;;5067959;28;20308;-75
2022/02/14 10:39:08;;;;;;;2.88;2.50;;;13.30;98.00;;;;;;5068825;28;20390;-75
2022/02/14 10:41:36;;;;;;;2.53;1.70;;;13.20;98.40;;;;;;5069130;28;20182;-74
2022/02/14 10:44:08;;;;;;;6.95;2.58;;;13.20;98.50;;;;;;5068226;28;20251;-73
2022/02/14 10:46:36;;;;;;;7.78;2.08;;;13.30;98.60;;;;;;5067851;28;20241;-72
2022/02/14 10:49:04;;;;;;;8.85;3.08;;;13.20;98.90;;;;;;5067802;28;20435;-75
2022/02/14 10:51:31;;;;;;;5.07;2.05;;;13.50;98.50;;;;;;5067700;28;20273;-72
2022/02/14 10:53:59;;;;;;;4.28;1.95;;;13.50;98.20;;;;;;5067979;28;20253;-73
2022/02/14 10:56:26;;;;;;;10.55;3.38;;;13.60;98.50;;;;;;5067632;28;20215;-73
2022/02/14 10:59:22;;;;;;;2.70;1.77;;;13.50;98.50;;;;;;5067829;28;20176;-73
2022/02/14 11:01:49;;;;;;;3.28;2.55;;;13.50;98.40;;;;;;5067269;28;20269;-75
2022/02/14 11:04:16;;;;;;;3.33;2.50;;;13.60;98.70;;;;;;5069382;28;20294;-76
2022/02/14 11:06:44;;;;;;;4.10;1.98;;;13.50;98.50;;;;;;5069033;28;20350;-74
2022/02/14 11:09:12;;;;;;;3.50;2.70;;;13.40;98.80;;;;;;5067377;28;20211;-72
2022/02/14 11:11:40;;;;;;;5.70;2.60;;;13.30;99.50;;;;;;5066692;28;20283;-73
2022/02/14 11:14:08;;;;;;;9.32;2.60;;;13.20;99.90;;;;;;5067979;28;20342;-72
2022/02/14 11:16:44;;;;;;;6.03;3.00;;;13.10;99.90;;;;;;5071877;28;20201;-74
2022/02/14 11:19:12;;;;;;;4.80;1.95;;;13.10;99.90;;;;;;5087371;28;20279;-73
2022/02/14 11:21:40;;;;;;;4.90;2.22;;;13.20;99.90;;;;;;5081429;28;20302;-72
2022/02/14 11:24:18;;;;;;;3.58;2.33;;;13.10;99.90;;;;;;5067110;28;20200;-74
2022/02/14 11:26:55;;;;;;;2.40;1.90;;;13.10;99.90;;;;;;5065836;28;20242;-74
2022/02/14 11:29:44;;;;;;;4.50;2.90;;;12.90;99.90;;;;;;5066269;28;20227;-73
2022/02/14 11:32:24;;;;;;;3.50;2.63;;;13.10;99.90;;;;;;5066946;28;20326;-73
2022/02/14 11:35:05;;;;;;;4.72;2.50;;;13.30;99.90;;;;;;5066058;28;20206;-73
2022/02/14 11:37:54;;;;;;;10.90;2.42;;;13.30;99.90;;;;;;5067026;28;20198;-74
2022/02/14 11:40:37;;;;;;;3.45;2.72;;;13.30;99.90;;;;;;5067394;28;20202;-76
2022/02/14 11:43:12;;;;;;;4.88;2.30;;;13.30;99.90;;;;;;5068206;28;20241;-71
2022/02/14 11:45:40;;;;;;;4.85;2.33;;;13.30;99.90;;;;;;5067415;28;20242;-72
2022/02/14 11:48:22;;;;;;;4.22;2.80;;;13.20;99.90;;;;;;5067174;28;20225;-72
2022/02/14 11:50:50;;;;;;;4.93;2.40;;;13.10;99.90;;;;;;5066127;28;20214;-75
2022/02/14 11:53:41;;;;;;;4.85;2.78;;;13.10;99.90;;;;;;5066874;28;20204;-72
2022/02/14 11:56:27;;;;;;;3.90;2.20;;;13.10;99.90;;;;;;5066830;28;20191;-74
2022/02/14 11:59:14;;;;;;;5.32;2.60;;;13.10;99.90;;;;;;5046651;28;20211;-75
2022/02/14 12:02:01;;;;;;;2.50;2.00;;;12.90;99.90;;;;;;5046160;28;20200;-72
2022/02/14 12:04:49;;;;;;;5.57;2.10;;;12.80;99.90;;;;;;5047024;28;20179;-76
2022/02/14 12:07:25;;;;;;;4.82;2.75;;;12.80;99.90;;;;;;5051639;28;20205;-71
2022/02/14 12:10:30;;;;;;;4.18;3.30;;;12.80;99.90;;;;;;5066877;28;20239;-72
2022/02/14 12:13:13;;;;;;;4.57;2.97;;;12.80;99.90;;;;;;5067361;28;20206;-74
2022/02/14 12:21:22;;;;;;;5.32;2.88;;;12.60;99.90;;;;;;5066513;28;20181;-74
2022/02/14 12:23:50;;;;;;;6.10;3.17;;;12.60;99.90;;;;;;5071467;28;20253;-73
2022/02/14 12:26:19;;;;;;;4.75;3.70;;;12.50;99.90;;;;;;5071136;28;20187;-74
2022/02/14 12:29:31;;;;;;;8.68;3.45;;;12.60;99.90;;;;;;5071655;28;20207;-74
2022/02/14 12:31:46;;;;;;;4.38;3.97;;;12.50;99.90;;;;;;5068027;28;20211;-74
2022/02/14 12:34:23;;;;;;;6.63;4.15;;;12.30;99.90;;;;;;5072755;28;20438;-73
2022/02/14 12:36:57;;;;;;;4.85;4.35;;;12.00;99.90;;;;;;5072529;28;20430;-71
2022/02/14 12:39:32;;;;;;;4.60;4.20;;;11.80;99.90;;;;;;5070813;28;20226;-75
2022/02/14 12:42:07;;;;;;;5.70;5.10;;;11.60;99.90;;;;;;5070137;28;20239;-75
2022/02/14 12:44:35;;;;;;;6.53;5.68;;;11.50;99.90;;;;;;5070308;28;20383;-75
2022/02/14 12:47:02;;;;;;;6.57;5.97;;;11.30;99.90;;;;;;5070727;28;20232;-76
2022/02/14 12:49:29;;;;;;;6.65;5.95;;;11.30;99.90;;;;;;5071004;28;20217;-74
2022/02/14 12:52:11;;;;;;;7.70;5.97;;;11.30;99.90;;;;;;5069830;28;20260;-72
2022/02/14 12:54:39;;;;;;;6.25;5.72;;;11.30;99.90;;;;;;5070083;28;20216;-74
2022/02/14 12:57:05;;;;;;;5.55;5.05;;;11.40;99.90;;;;;;5069925;28;20183;-75
2022/02/14 12:59:35;;;;;;;6.82;6.22;;;11.60;99.90;;;;;;5069179;28;20351;-75
2022/02/14 13:02:02;;;;;;;6.50;5.90;;;11.70;99.90;;;;;;5069391;28;20427;-75
2022/02/14 13:04:31;;;;;;;6.25;5.43;;;11.80;99.90;;;;;;5070147;28;20222;-74
2022/02/14 13:06:58;;;;;;;6.80;5.10;;;11.90;99.90;;;;;;5069768;28;20182;-76
2022/02/14 13:09:30;;;;;;;6.85;4.78;;;11.90;99.90;;;;;;5070025;28;20213;-76